Página principal
METAR-TAF:

METAR-TAF

Aeroportos :

Rota, Espanha

latitude: 36-39N, longitude: 006-21W, altura: 26 m

Observação actual do tempo

O boletim foi feito há 1 hora e 18 minutos, às 10:00 UTC
Vento 19 kt de este
Temperatura 31°C
Humidade 46%
Pressão 1015 hPa
Visibilidade 10 km ou mais
sem nuvens abaixo de 1500 metros e sem cumulonimbus

METAR: LERT 191000Z 10019KT CAVOK 31/18 Q1015 NOSIG

Hora: 13:18 (11:18 UTC)

Previsão

O boletim foi feito há 3 horas e 18 minutos, às 08:00 UTC
Previsão válida de 19 às 09 UTC a 19 às 18 UTC
Vento 12 kt de es-sudeste
Visibilidade 10 km ou mais
sem nuvens abaixo de 1500 metros e sem cumulonimbus
Probabilidade 40% :
Temporariamente
de 19 às 09 UTC a 19 às 18 UTC
Vento 20 kt de es-sudeste com rajadas de 30 kt

TAF: LERT 190800Z 1909/1918 12012KT CAVOK PROB40 TEMPO 1909/1918 12020G30KT

Observações e previsões do tempo de mais de 4000 aeroportos (mensagens METAR e TAF).

As estações disponíveis são os pontos amarelos e vermelhos sobre o mapa.

Mova o rato sobre o mapa para ver o nome da estação.

Depois clique no ponto para visualizar as observações e previsões meteorológicas.

Para alterar o mapa : clique nos botões verdes com uma cruz preta para aumentar o zoom; no botão verde com uma pitada de zoom; ou nas setas verdes para mapas adjacentes.


METAR-TAF: